K1 VVCT-VVCT
Flight info
| Callsign | K1 |
|---|---|
| Flight time | N/A |
| Altitude | 4000 |
| Route | TRN |
| Aircraft | C172/L-L/L |
Departure
| Time | 2026-04-23 06:00 |
|---|---|
| Airport | Can Tho International Airport (VVCT) |
Arrival
| Time | N/A |
|---|---|
| Airport | Can Tho International Airport (VVCT) |
| Time | Latitude | Longitude | Altitude | Speed | Heading |
|---|---|---|---|---|---|
| 2026-04-23 05:55 | 10.08170 | 105.71234 | 13 ft | 0 kts | 152° |
| 2026-04-23 05:56 | 10.08171 | 105.71237 | 13 ft | 0 kts | 48° |
| 2026-04-23 05:56 | 10.08179 | 105.71242 | 13 ft | 2 kts | 15° |
| 2026-04-23 05:56 | 10.08211 | 105.71227 | 13 ft | 11 kts | 324° |
| 2026-04-23 05:57 | 10.08229 | 105.71152 | 13 ft | 13 kts | 249° |
| 2026-04-23 05:57 | 10.08282 | 105.71069 | 13 ft | 19 kts | 332° |
| 2026-04-23 05:57 | 10.08412 | 105.71020 | 13 ft | 20 kts | 29° |
| 2026-04-23 05:57 | 10.08489 | 105.71154 | 13 ft | 23 kts | 62° |
| 2026-04-23 05:58 | 10.08577 | 105.71307 | 13 ft | 25 kts | 59° |
| 2026-04-23 05:58 | 10.08674 | 105.71478 | 13 ft | 29 kts | 59° |
| 2026-04-23 05:58 | 10.08776 | 105.71654 | 13 ft | 28 kts | 58° |
| 2026-04-23 05:58 | 10.08867 | 105.71826 | 13 ft | 27 kts | 65° |
| 2026-04-23 05:59 | 10.08929 | 105.71920 | 13 ft | 6 kts | 248° |
| 2026-04-23 05:59 | 10.08872 | 105.71825 | 13 ft | 40 kts | 240° |
| 2026-04-23 05:59 | 10.08656 | 105.71439 | 48 ft | 76 kts | 244° |
| 2026-04-23 05:59 | 10.08408 | 105.70946 | 238 ft | 77 kts | 244° |
| 2026-04-23 06:00 | 10.08151 | 105.70477 | 422 ft | 79 kts | 242° |
| 2026-04-23 06:00 | 10.07864 | 105.69966 | 558 ft | 87 kts | 242° |
| 2026-04-23 06:00 | 10.07550 | 105.69404 | 693 ft | 95 kts | 242° |
| 2026-04-23 06:00 | 10.07214 | 105.68798 | 825 ft | 101 kts | 242° |
| 2026-04-23 06:01 | 10.06860 | 105.68158 | 956 ft | 107 kts | 242° |
| 2026-04-23 06:01 | 10.06485 | 105.67477 | 1086 ft | 112 kts | 242° |
| 2026-04-23 06:01 | 10.06106 | 105.66787 | 1213 ft | 114 kts | 242° |
| 2026-04-23 06:01 | 10.05714 | 105.66072 | 1341 ft | 116 kts | 242° |
| 2026-04-23 06:02 | 10.05320 | 105.65352 | 1467 ft | 117 kts | 242° |
| 2026-04-23 06:02 | 10.04922 | 105.64625 | 1596 ft | 118 kts | 242° |
| 2026-04-23 06:02 | 10.04532 | 105.63897 | 1720 ft | 119 kts | 242° |
| 2026-04-23 06:02 | 10.04137 | 105.63156 | 1845 ft | 119 kts | 241° |
| 2026-04-23 06:03 | 10.03743 | 105.62408 | 1972 ft | 120 kts | 239° |
| 2026-04-23 06:03 | 10.03080 | 105.61877 | 1966 ft | 127 kts | 194° |
| 2026-04-23 06:03 | 10.02219 | 105.61974 | 1960 ft | 129 kts | 151° |
| 2026-04-23 06:03 | 10.01679 | 105.62669 | 1957 ft | 130 kts | 107° |
| 2026-04-23 06:04 | 10.01573 | 105.63584 | 1953 ft | 132 kts | 109° |
| 2026-04-23 06:04 | 10.00977 | 105.64274 | 1959 ft | 131 kts | 144° |
| 2026-04-23 06:04 | 10.00265 | 105.64758 | 1953 ft | 118 kts | 138° |
| 2026-04-23 06:04 | 9.99751 | 105.65378 | 1958 ft | 110 kts | 128° |
| 2026-04-23 06:05 | 9.99302 | 105.65977 | 1957 ft | 105 kts | 127° |
| 2026-04-23 06:05 | 9.98871 | 105.66565 | 1957 ft | 101 kts | 122° |
| 2026-04-23 06:05 | 9.98782 | 105.67249 | 1954 ft | 101 kts | 76° |